Masjed Soleyman, Iran
Current Conditions -  °F | °C
As of 5:00 AM on Tuesday 23 Dec 2014 (Local Time) from OIAW Reporting Station
Haze Haze  
Wind Chill: 10°   Ceiling: Unl
Heat Index: 10°   Visibility: 1.8mi
Dew Point:   Wind: 5mph
Humidity: 82%   Direction: 250°WSW
Pressure: 30"   Gusts: NA
Location:  31.94°N, 49.31°E
Report Text: OIAW 230200Z 25004KT 3000 BR SKC 10/07 Q1016
Loading
Personal Weather Stations






























Interactive Weather Map New forecast layout! Learn more

10-Day Weather Forecast

Advertisements
Track Severe Weather on mobile